Time;durP1;ratioP1;P1;durP2;ratioP2;P2;SDS_P1;SDS_P2;PMS_P1;PMS_P2;Temp;Humidity;BMP_temperature;BMP_pressure;BME280_temperature;BME280_humidity;BME280_pressure;Samples;Min_cycle;Max_cycle;Signal;HPM_P1;HPM_P2
2022/08/21 00:00:12;;;;;;;8.75;4.05;;;20.90;46.00;;;;;;5010401;28;20050;-54
2022/08/21 00:02:48;;;;;;;8.43;4.25;;;20.90;45.90;;;;;;5023070;28;20049;-53
2022/08/21 00:05:16;;;;;;;8.73;3.35;;;20.90;46.00;;;;;;5022366;28;20064;-52
2022/08/21 00:07:43;;;;;;;9.13;4.07;;;20.90;46.00;;;;;;5018987;28;20057;-51
2022/08/21 00:10:12;;;;;;;7.05;3.58;;;20.80;46.10;;;;;;5016564;28;20064;-49
2022/08/21 00:12:40;;;;;;;6.53;3.75;;;20.80;46.20;;;;;;5023365;28;20054;-55
2022/08/21 00:15:09;;;;;;;6.30;3.35;;;20.80;46.30;;;;;;5019638;28;20049;-53
2022/08/21 00:17:36;;;;;;;11.15;4.25;;;20.70;46.30;;;;;;5024818;28;20060;-54
2022/08/21 00:20:08;;;;;;;6.82;3.92;;;20.70;46.30;;;;;;5016502;28;20049;-50
2022/08/21 00:22:36;;;;;;;8.70;3.92;;;20.60;46.50;;;;;;5020020;28;20061;-52
2022/08/21 00:25:05;;;;;;;8.75;4.07;;;20.60;46.50;;;;;;5021889;28;20060;-53
2022/08/21 00:27:32;;;;;;;9.90;3.92;;;20.60;46.70;;;;;;5022294;28;20057;-53
2022/08/21 00:30:00;;;;;;;7.15;3.88;;;20.60;46.70;;;;;;5016886;28;20086;-50
2022/08/21 00:32:28;;;;;;;7.25;4.13;;;20.50;46.90;;;;;;5023961;28;20061;-51
2022/08/21 00:34:56;;;;;;;7.60;3.60;;;20.50;47.10;;;;;;5022523;28;20413;-52
2022/08/21 00:37:25;;;;;;;10.98;4.10;;;20.50;47.10;;;;;;5024646;28;20471;-48
2022/08/21 00:39:53;;;;;;;9.15;4.05;;;20.40;47.20;;;;;;5015448;28;21945;-52
2022/08/21 00:42:20;;;;;;;8.80;4.22;;;20.40;47.30;;;;;;5020317;28;20049;-50
2022/08/21 00:44:49;;;;;;;6.55;3.90;;;20.40;47.40;;;;;;5019659;28;20493;-55
2022/08/21 00:47:17;;;;;;;7.70;3.78;;;20.40;47.50;;;;;;5021101;28;20098;-52
2022/08/21 00:49:45;;;;;;;7.38;3.65;;;20.40;47.60;;;;;;5019910;28;20054;-56
2022/08/21 00:52:15;;;;;;;9.50;4.55;;;20.30;47.60;;;;;;5019964;28;20049;-49
2022/08/21 00:54:44;;;;;;;10.10;4.15;;;20.30;47.80;;;;;;5023421;28;20052;-52
2022/08/21 00:57:16;;;;;;;8.32;4.05;;;20.30;47.90;;;;;;5021907;28;20061;-52
2022/08/21 00:59:48;;;;;;;9.35;4.22;;;20.30;48.00;;;;;;5011892;28;20080;-51
2022/08/21 01:02:18;;;;;;;9.43;4.07;;;20.30;48.10;;;;;;5018989;28;20271;-50
2022/08/21 01:04:45;;;;;;;11.02;4.32;;;20.30;48.00;;;;;;5021641;28;20049;-52
2022/08/21 01:07:13;;;;;;;9.88;3.90;;;20.20;48.00;;;;;;5023579;28;20061;-55
2022/08/21 01:09:41;;;;;;;9.50;4.25;;;20.20;48.10;;;;;;5014415;28;20060;-52
2022/08/21 01:12:11;;;;;;;7.85;3.80;;;20.20;48.20;;;;;;5019245;28;21357;-51
2022/08/21 01:14:38;;;;;;;9.93;4.18;;;20.20;48.30;;;;;;5021602;28;20052;-52
2022/08/21 01:17:06;;;;;;;6.93;4.05;;;20.20;48.40;;;;;;5020613;28;20065;-53
2022/08/21 01:19:34;;;;;;;8.38;4.38;;;20.20;48.50;;;;;;5018802;28;20065;-52
2022/08/21 01:22:03;;;;;;;11.55;4.43;;;20.20;48.50;;;;;;5020238;28;20083;-52
2022/08/21 01:24:31;;;;;;;12.13;4.57;;;20.10;48.50;;;;;;5018227;28;20064;-50
2022/08/21 01:26:59;;;;;;;8.95;4.18;;;20.10;48.50;;;;;;5020101;28;20068;-54
2022/08/21 01:29:32;;;;;;;7.38;4.10;;;20.10;48.60;;;;;;5018866;28;20049;-54
2022/08/21 01:32:00;;;;;;;8.00;4.35;;;20.10;48.70;;;;;;5019586;28;20425;-55
2022/08/21 01:34:27;;;;;;;10.73;4.78;;;20.10;48.70;;;;;;5021612;28;20405;-49
2022/08/21 01:36:54;;;;;;;6.70;3.80;;;20.00;48.70;;;;;;5019478;28;20057;-49
2022/08/21 01:39:23;;;;;;;10.98;4.65;;;20.00;48.70;;;;;;5011658;28;21723;-50
2022/08/21 01:41:50;;;;;;;11.30;4.30;;;20.00;48.90;;;;;;5017735;28;20057;-49
2022/08/21 01:44:21;;;;;;;10.50;4.63;;;20.00;48.90;;;;;;5018310;28;20064;-53
2022/08/21 01:46:49;;;;;;;8.40;4.00;;;20.00;49.10;;;;;;5020881;28;20512;-52
2022/08/21 01:49:17;;;;;;;9.32;4.60;;;20.00;49.00;;;;;;5020014;28;20056;-49
2022/08/21 01:51:44;;;;;;;8.48;4.40;;;20.00;49.10;;;;;;5017304;28;20057;-48
2022/08/21 01:54:11;;;;;;;9.63;4.47;;;19.90;49.10;;;;;;5020090;28;20390;-51
2022/08/21 01:56:43;;;;;;;11.65;4.30;;;19.90;49.10;;;;;;5022586;28;20054;-49
2022/08/21 01:59:10;;;;;;;8.25;3.75;;;19.90;49.20;;;;;;5016239;28;20057;-49
2022/08/21 02:01:39;;;;;;;10.07;4.90;;;19.80;49.10;;;;;;5014472;28;20060;-48
2022/08/21 02:04:07;;;;;;;11.00;4.72;;;19.80;49.20;;;;;;5013194;28;20441;-53
2022/08/21 02:06:35;;;;;;;9.90;3.95;;;19.80;49.30;;;;;;5020081;28;20058;-52
2022/08/21 02:09:03;;;;;;;8.27;4.55;;;19.80;49.30;;;;;;5022486;28;20054;-50
2022/08/21 02:11:32;;;;;;;8.57;4.22;;;19.80;49.40;;;;;;5013497;28;20056;-50
2022/08/21 02:14:01;;;;;;;10.63;4.50;;;19.80;49.40;;;;;;5020306;28;20053;-49
2022/08/21 02:16:28;;;;;;;7.43;4.28;;;19.70;49.40;;;;;;5020595;28;20057;-54
2022/08/21 02:18:55;;;;;;;6.88;3.80;;;19.70;49.30;;;;;;5010661;28;21379;-54
2022/08/21 02:21:23;;;;;;;8.73;4.60;;;19.70;49.30;;;;;;5011003;28;20049;-51
2022/08/21 02:23:50;;;;;;;8.23;4.68;;;19.70;49.40;;;;;;5021917;28;20061;-52
2022/08/21 02:26:17;;;;;;;9.65;4.45;;;19.60;49.40;;;;;;5015608;28;20394;-48
2022/08/21 02:28:45;;;;;;;9.38;4.72;;;19.60;49.40;;;;;;5006965;28;20053;-53
2022/08/21 02:31:13;;;;;;;11.13;4.93;;;19.60;49.60;;;;;;5010972;28;20053;-54
2022/08/21 02:33:41;;;;;;;9.68;4.45;;;19.60;49.60;;;;;;5025017;28;20049;-49
2022/08/21 02:36:09;;;;;;;11.18;4.47;;;19.60;49.70;;;;;;5018154;28;20064;-50
2022/08/21 02:38:38;;;;;;;7.93;4.45;;;19.50;49.70;;;;;;5019898;28;20049;-50
2022/08/21 02:41:07;;;;;;;7.05;3.90;;;19.50;49.80;;;;;;5006262;28;20049;-50
2022/08/21 02:43:35;;;;;;;10.80;4.32;;;19.50;49.80;;;;;;5012886;28;20527;-51
2022/08/21 02:46:04;;;;;;;7.93;4.57;;;19.50;49.80;;;;;;5016651;28;20053;-51
2022/08/21 02:48:34;;;;;;;12.10;4.97;;;19.40;49.80;;;;;;5020705;28;20057;-52
2022/08/21 02:51:04;;;;;;;9.98;4.60;;;19.40;49.90;;;;;;5017309;28;20053;-49
2022/08/21 02:53:33;;;;;;;10.30;5.18;;;19.40;49.90;;;;;;5014744;28;20056;-47
2022/08/21 02:56:03;;;;;;;11.35;4.93;;;19.40;49.90;;;;;;5016069;28;20060;-53
2022/08/21 02:58:44;;;;;;;11.70;5.35;;;19.40;49.90;;;;;;5018570;28;20049;-49
2022/08/21 03:01:12;;;;;;;10.30;4.70;;;19.40;50.00;;;;;;5016055;28;20405;-51
2022/08/21 03:03:43;;;;;;;9.25;4.22;;;19.30;49.90;;;;;;5004037;28;20053;-51
2022/08/21 03:06:12;;;;;;;9.13;5.10;;;19.30;50.00;;;;;;5003594;28;20124;-51
2022/08/21 03:08:40;;;;;;;7.78;4.70;;;19.30;50.00;;;;;;5019925;28;21456;-51
2022/08/21 03:11:08;;;;;;;7.68;4.55;;;19.30;50.10;;;;;;5013177;28;20053;-51
2022/08/21 03:13:36;;;;;;;8.55;4.22;;;19.30;50.10;;;;;;5017570;28;20049;-48
2022/08/21 03:16:03;;;;;;;6.68;4.05;;;19.30;50.20;;;;;;5016302;28;20057;-49
2022/08/21 03:18:31;;;;;;;8.88;3.90;;;19.20;50.20;;;;;;5022873;28;20056;-50
2022/08/21 03:20:59;;;;;;;9.38;5.10;;;19.20;50.20;;;;;;5018294;28;20520;-48
2022/08/21 03:23:27;;;;;;;10.82;4.28;;;19.20;50.20;;;;;;5019949;28;20099;-51
2022/08/21 03:25:54;;;;;;;10.73;4.40;;;19.20;50.30;;;;;;5022746;28;20054;-51
2022/08/21 03:28:22;;;;;;;11.55;4.28;;;19.20;50.30;;;;;;5024491;28;20060;-51
2022/08/21 03:30:52;;;;;;;8.95;4.57;;;19.20;50.40;;;;;;5020123;28;20058;-48
2022/08/21 03:33:20;;;;;;;9.50;4.88;;;19.10;50.40;;;;;;5017239;28;20058;-51
2022/08/21 03:35:52;;;;;;;8.32;4.20;;;19.10;50.40;;;;;;5021984;28;20065;-48
2022/08/21 03:38:21;;;;;;;10.85;4.63;;;19.10;50.50;;;;;;5017423;28;20061;-51
2022/08/21 03:40:48;;;;;;;11.20;5.00;;;19.10;50.50;;;;;;5006103;28;20054;-52
2022/08/21 03:43:16;;;;;;;10.73;5.00;;;19.10;50.60;;;;;;5020781;28;20057;-53
2022/08/21 03:45:43;;;;;;;8.18;4.45;;;19.00;50.70;;;;;;5018612;28;20076;-49
2022/08/21 03:48:11;;;;;;;11.85;4.85;;;19.00;50.80;;;;;;5020361;28;20486;-52
2022/08/21 03:50:43;;;;;;;10.20;4.57;;;19.00;50.80;;;;;;5018183;28;20049;-48
2022/08/21 03:53:12;;;;;;;6.93;4.30;;;18.90;50.80;;;;;;5021834;28;20060;-52
2022/08/21 03:55:41;;;;;;;9.65;4.70;;;18.90;50.80;;;;;;5020689;28;20072;-49
2022/08/21 03:58:09;;;;;;;12.90;5.18;;;18.90;50.80;;;;;;5021941;28;20061;-52
2022/08/21 04:00:37;;;;;;;8.90;4.60;;;18.90;50.90;;;;;;5009749;28;20058;-47
2022/08/21 04:03:04;;;;;;;10.00;4.70;;;18.90;51.00;;;;;;5014611;28;20049;-51
2022/08/21 04:05:32;;;;;;;9.60;4.63;;;18.90;51.00;;;;;;5020321;28;20057;-49
2022/08/21 04:08:02;;;;;;;10.60;4.78;;;18.80;51.00;;;;;;5022281;28;20057;-51
2022/08/21 04:10:31;;;;;;;12.27;6.35;;;18.80;51.00;;;;;;5018389;28;20066;-47
2022/08/21 04:12:59;;;;;;;8.90;4.88;;;18.80;50.90;;;;;;5014526;28;20422;-51
2022/08/21 04:15:28;;;;;;;8.98;4.70;;;18.80;50.90;;;;;;5020712;28;20065;-54
2022/08/21 04:17:55;;;;;;;7.32;4.47;;;18.80;50.90;;;;;;5007896;28;20512;-53
2022/08/21 04:20:24;;;;;;;10.52;4.35;;;18.70;50.90;;;;;;5008654;28;20054;-52
2022/08/21 04:22:52;;;;;;;7.72;4.30;;;18.70;51.00;;;;;;5019485;28;20053;-50
2022/08/21 04:25:23;;;;;;;7.60;4.45;;;18.70;51.00;;;;;;5022347;28;20057;-50
2022/08/21 04:27:50;;;;;;;10.50;4.68;;;18.60;51.00;;;;;;5020423;28;20065;-49
2022/08/21 04:30:19;;;;;;;9.98;5.32;;;18.60;51.00;;;;;;5009719;28;20061;-53
2022/08/21 04:32:48;;;;;;;7.50;3.92;;;18.60;51.10;;;;;;5022229;28;20057;-52
2022/08/21 04:35:17;;;;;;;8.05;4.30;;;18.50;51.00;;;;;;5017985;28;20469;-47
2022/08/21 04:37:44;;;;;;;9.40;4.85;;;18.50;51.00;;;;;;5019240;28;20118;-53
2022/08/21 04:40:13;;;;;;;7.63;4.95;;;18.50;51.00;;;;;;5013299;28;20042;-49
2022/08/21 04:42:49;;;;;;;11.30;5.57;;;18.50;51.00;;;;;;5015161;28;20060;-50
2022/08/21 04:45:23;;;;;;;10.10;5.40;;;18.50;51.10;;;;;;5021526;28;20057;-51
2022/08/21 04:47:51;;;;;;;11.88;4.55;;;18.40;51.10;;;;;;5017005;28;20417;-48
2022/08/21 04:50:18;;;;;;;10.85;5.22;;;18.40;51.10;;;;;;5016321;28;20053;-48
2022/08/21 04:52:47;;;;;;;10.90;4.35;;;18.40;51.10;;;;;;5021615;28;20053;-49
2022/08/21 04:55:15;;;;;;;20.90;9.43;;;18.40;51.20;;;;;;5014996;28;20064;-51
2022/08/21 04:57:42;;;;;;;53.47;25.73;;;18.30;51.20;;;;;;5018552;28;20057;-49
2022/08/21 05:00:12;;;;;;;21.15;9.98;;;18.30;51.20;;;;;;5017370;28;20056;-48
2022/08/21 05:02:42;;;;;;;11.18;6.40;;;18.30;51.20;;;;;;5020820;28;20057;-51
2022/08/21 05:05:09;;;;;;;9.98;4.63;;;18.30;51.30;;;;;;5024410;28;20049;-53
2022/08/21 05:07:37;;;;;;;10.15;4.47;;;18.30;51.30;;;;;;5017952;28;20049;-51
2022/08/21 05:10:07;;;;;;;9.73;4.38;;;18.30;51.40;;;;;;5014084;28;20053;-50
2022/08/21 05:12:35;;;;;;;8.13;4.20;;;18.20;51.30;;;;;;5018241;28;20049;-49
2022/08/21 05:15:03;;;;;;;13.02;4.70;;;18.20;51.40;;;;;;5021566;28;20413;-50
2022/08/21 05:17:30;;;;;;;8.90;4.50;;;18.20;51.50;;;;;;5021023;28;20049;-54
2022/08/21 05:19:59;;;;;;;12.02;4.53;;;18.20;51.50;;;;;;5018714;28;20537;-54
2022/08/21 05:22:26;;;;;;;9.23;4.13;;;18.20;51.60;;;;;;5023882;28;20057;-53
2022/08/21 05:24:53;;;;;;;8.85;4.63;;;18.20;51.70;;;;;;5022518;28;20056;-54
2022/08/21 05:27:21;;;;;;;9.88;4.28;;;18.20;51.70;;;;;;5018244;28;20053;-51
2022/08/21 05:29:48;;;;;;;12.75;4.82;;;18.20;51.80;;;;;;5015972;28;20191;-49
2022/08/21 05:32:15;;;;;;;8.95;4.95;;;18.20;51.90;;;;;;5009361;28;20049;-49
2022/08/21 05:34:43;;;;;;;14.52;5.13;;;18.20;52.00;;;;;;5014427;28;20053;-52
2022/08/21 05:37:13;;;;;;;8.23;4.22;;;18.20;52.10;;;;;;5011035;28;20064;-50
2022/08/21 05:39:40;;;;;;;7.22;4.20;;;18.20;52.30;;;;;;5019171;28;20501;-52
2022/08/21 05:42:07;;;;;;;10.80;4.40;;;18.20;52.30;;;;;;5018593;28;20068;-51
2022/08/21 05:44:34;;;;;;;9.10;4.22;;;18.20;52.40;;;;;;5020288;28;20054;-46
2022/08/21 05:47:06;;;;;;;8.05;4.35;;;18.30;52.50;;;;;;5023622;28;20061;-47
2022/08/21 05:49:34;;;;;;;8.18;4.38;;;18.30;52.60;;;;;;5020582;28;20518;-52
2022/08/21 05:52:01;;;;;;;8.63;4.35;;;18.30;52.50;;;;;;5022315;28;20481;-49
2022/08/21 05:54:31;;;;;;;13.63;4.68;;;18.30;52.60;;;;;;5018012;28;20068;-49
2022/08/21 05:56:58;;;;;;;12.02;5.07;;;18.30;52.60;;;;;;5022166;28;20057;-50
2022/08/21 05:59:25;;;;;;;11.38;4.70;;;18.40;52.80;;;;;;5020555;28;20061;-48
2022/08/21 06:01:52;;;;;;;6.85;4.30;;;18.50;52.80;;;;;;5016554;28;20057;-49
2022/08/21 06:04:20;;;;;;;9.82;4.20;;;18.50;52.80;;;;;;5022616;28;20049;-48
2022/08/21 06:06:48;;;;;;;7.93;3.97;;;18.50;52.80;;;;;;5023285;28;20065;-51
2022/08/21 06:09:15;;;;;;;9.15;4.35;;;18.50;52.80;;;;;;5022332;28;20061;-49
2022/08/21 06:11:44;;;;;;;8.52;4.32;;;18.60;52.90;;;;;;5020632;28;20076;-52
2022/08/21 06:14:14;;;;;;;6.10;4.40;;;18.60;53.10;;;;;;5018920;28;20511;-52
2022/08/21 06:16:41;;;;;;;10.73;4.35;;;18.60;53.00;;;;;;5022233;28;20049;-50
2022/08/21 06:19:08;;;;;;;7.97;3.67;;;18.70;53.10;;;;;;5021663;28;20064;-51
2022/08/21 06:21:36;;;;;;;8.90;4.18;;;18.70;53.10;;;;;;5018032;28;20485;-48
2022/08/21 06:24:04;;;;;;;11.35;4.90;;;18.70;53.00;;;;;;5021773;28;20053;-49
2022/08/21 06:26:31;;;;;;;11.20;4.10;;;18.80;53.20;;;;;;5021288;28;20053;-54
2022/08/21 06:29:00;;;;;;;6.68;4.13;;;18.90;53.20;;;;;;5020850;28;20053;-48
2022/08/21 06:31:28;;;;;;;7.45;3.83;;;18.90;53.20;;;;;;5016974;28;20052;-53
2022/08/21 06:33:56;;;;;;;8.10;3.85;;;19.00;53.10;;;;;;5019658;28;20057;-49
2022/08/21 06:36:25;;;;;;;7.40;3.78;;;19.00;53.10;;;;;;5021057;28;20046;-53
2022/08/21 06:38:52;;;;;;;9.00;4.10;;;19.00;53.20;;;;;;5016880;28;20543;-47
2022/08/21 06:41:19;;;;;;;9.35;4.63;;;19.10;53.20;;;;;;5017697;28;20058;-51
2022/08/21 06:43:47;;;;;;;10.52;4.22;;;19.10;53.20;;;;;;5018245;28;20050;-47
2022/08/21 06:46:15;;;;;;;7.03;4.20;;;19.20;53.20;;;;;;5019903;28;20062;-46
2022/08/21 06:48:42;;;;;;;7.75;4.07;;;19.30;53.20;;;;;;5021725;28;20049;-52
2022/08/21 06:51:10;;;;;;;10.57;4.22;;;19.30;53.10;;;;;;5018512;28;20053;-48
2022/08/21 06:53:37;;;;;;;12.32;4.40;;;19.40;53.10;;;;;;5019044;28;20049;-52
2022/08/21 06:56:05;;;;;;;10.52;4.53;;;19.40;53.10;;;;;;5001848;28;20050;-48
2022/08/21 06:58:32;;;;;;;10.52;4.65;;;19.50;53.10;;;;;;5000837;28;20066;-50
2022/08/21 07:00:59;;;;;;;14.55;4.35;;;19.50;53.00;;;;;;4999408;28;20062;-47
2022/08/21 07:03:34;;;;;;;8.60;4.30;;;19.50;53.10;;;;;;5002966;28;20403;-48
2022/08/21 07:06:02;;;;;;;11.90;5.35;;;19.60;53.20;;;;;;5001985;28;20054;-47
2022/08/21 07:08:29;;;;;;;8.77;3.92;;;19.70;53.20;;;;;;5001615;28;20505;-51
2022/08/21 07:11:00;;;;;;;10.60;4.70;;;19.80;53.10;;;;;;4997686;28;20054;-48
2022/08/21 07:13:28;;;;;;;10.10;5.57;;;19.80;52.90;;;;;;4998115;28;20062;-51
2022/08/21 07:15:55;;;;;;;13.95;6.10;;;19.80;52.80;;;;;;5001039;28;20497;-51
2022/08/21 07:18:22;;;;;;;12.77;6.03;;;19.90;53.00;;;;;;5002012;28;20398;-49
2022/08/21 07:20:51;;;;;;;14.50;5.53;;;20.00;52.90;;;;;;4999967;28;20081;-49
2022/08/21 07:23:23;;;;;;;8.50;4.03;;;20.00;53.20;;;;;;4998288;28;20050;-53
2022/08/21 07:25:51;;;;;;;13.43;6.60;;;20.00;53.00;;;;;;5002366;28;20056;-51
2022/08/21 07:28:18;;;;;;;11.50;5.10;;;20.10;53.10;;;;;;4997115;28;20053;-53
2022/08/21 07:30:45;;;;;;;16.95;6.32;;;20.10;53.00;;;;;;4998650;28;20050;-50
2022/08/21 07:33:13;;;;;;;14.82;6.10;;;20.10;52.90;;;;;;5000667;28;20076;-50
2022/08/21 07:35:41;;;;;;;17.90;7.22;;;20.20;52.70;;;;;;5001214;28;20525;-48
2022/08/21 07:38:10;;;;;;;21.90;7.00;;;20.20;52.70;;;;;;4998950;28;20521;-48
2022/08/21 07:40:37;;;;;;;16.65;6.63;;;20.20;52.70;;;;;;4999192;28;20050;-49
2022/08/21 07:43:04;;;;;;;18.60;6.40;;;20.30;52.80;;;;;;4999383;28;20054;-49
2022/08/21 07:45:32;;;;;;;10.25;5.22;;;20.30;52.90;;;;;;5000725;28;20406;-52
2022/08/21 07:47:59;;;;;;;14.02;6.00;;;20.30;52.90;;;;;;5002209;28;20061;-47
2022/08/21 07:50:26;;;;;;;13.68;5.70;;;20.40;53.00;;;;;;4996837;28;20896;-50
2022/08/21 07:52:53;;;;;;;15.52;7.32;;;20.40;53.00;;;;;;5001521;28;20434;-51
2022/08/21 07:55:23;;;;;;;11.85;6.93;;;20.50;53.00;;;;;;5013754;28;20544;-49
2022/08/21 07:57:50;;;;;;;13.07;5.53;;;20.50;53.00;;;;;;5022588;28;20053;-48
2022/08/21 08:00:20;;;;;;;12.68;6.13;;;20.50;53.00;;;;;;5020187;28;20064;-53
2022/08/21 08:02:50;;;;;;;19.77;7.78;;;20.60;52.90;;;;;;5023908;28;20080;-50
2022/08/21 08:05:19;;;;;;;19.98;9.02;;;20.70;53.10;;;;;;5024764;28;20076;-50
2022/08/21 08:07:47;;;;;;;18.48;9.45;;;20.70;52.90;;;;;;5024891;28;20054;-51
2022/08/21 08:10:15;;;;;;;24.83;9.05;;;20.80;52.60;;;;;;5020722;28;20420;-52
2022/08/21 08:12:45;;;;;;;18.95;8.60;;;20.90;52.60;;;;;;5022402;28;20066;-48
2022/08/21 08:15:15;;;;;;;19.05;8.70;;;20.90;52.50;;;;;;5020955;28;20532;-50
2022/08/21 08:17:42;;;;;;;14.18;7.28;;;21.00;52.50;;;;;;5025419;28;20398;-53
2022/08/21 08:20:14;;;;;;;16.02;7.85;;;21.10;52.40;;;;;;5021354;28;20501;-51
2022/08/21 08:22:42;;;;;;;23.48;10.27;;;21.10;52.30;;;;;;5022518;28;20064;-50
2022/08/21 08:25:12;;;;;;;21.70;9.20;;;21.20;52.10;;;;;;5023626;28;20505;-50
2022/08/21 08:27:40;;;;;;;24.00;9.10;;;21.20;52.00;;;;;;5023817;28;20060;-51
2022/08/21 08:30:12;;;;;;;21.63;9.38;;;21.30;52.00;;;;;;5018810;28;20053;-51
2022/08/21 08:32:40;;;;;;;19.70;9.55;;;21.30;52.00;;;;;;5024206;28;20493;-53
2022/08/21 08:35:09;;;;;;;25.30;8.80;;;21.40;51.80;;;;;;5018384;28;20522;-48
2022/08/21 08:37:39;;;;;;;17.33;7.93;;;21.40;51.70;;;;;;5023962;28;20057;-48
2022/08/21 08:40:11;;;;;;;14.02;7.07;;;21.50;51.60;;;;;;5019883;28;20069;-52
2022/08/21 08:42:38;;;;;;;10.50;5.93;;;21.50;51.50;;;;;;5022728;28;20409;-51
2022/08/21 08:45:11;;;;;;;17.33;6.50;;;21.60;51.60;;;;;;5023857;28;20057;-49
2022/08/21 08:47:41;;;;;;;20.33;7.20;;;21.70;51.70;;;;;;5023511;28;20049;-49
2022/08/21 08:50:12;;;;;;;18.65;7.28;;;21.80;51.30;;;;;;5019351;28;20058;-50
2022/08/21 08:52:44;;;;;;;19.48;6.25;;;21.80;50.60;;;;;;5023674;28;20053;-51
2022/08/21 08:55:16;;;;;;;17.08;5.68;;;21.90;50.40;;;;;;5020146;28;20065;-50
2022/08/21 08:57:46;;;;;;;14.05;5.68;;;21.90;49.90;;;;;;5022378;28;20080;-54
2022/08/21 09:00:20;;;;;;;13.70;5.75;;;22.00;49.60;;;;;;5019972;28;20057;-51
2022/08/21 09:02:47;;;;;;;20.38;6.65;;;22.10;49.70;;;;;;5023313;28;20057;-51
2022/08/21 09:05:23;;;;;;;25.83;6.43;;;22.20;49.40;;;;;;5023997;28;20053;-50
2022/08/21 09:08:02;;;;;;;14.93;5.72;;;22.20;49.30;;;;;;5023455;28;20053;-51
2022/08/21 09:10:39;;;;;;;17.88;6.05;;;22.30;48.80;;;;;;5016029;28;20065;-53
2022/08/21 09:13:14;;;;;;;11.98;5.07;;;22.40;48.40;;;;;;5008574;28;20050;-52
2022/08/21 09:15:52;;;;;;;19.13;6.22;;;22.50;48.20;;;;;;5021138;28;20056;-52
2022/08/21 09:18:31;;;;;;;13.25;4.72;;;22.50;48.00;;;;;;5015227;28;20050;-51
2022/08/21 09:21:10;;;;;;;13.13;4.97;;;22.60;48.20;;;;;;5014904;28;20383;-51
2022/08/21 09:23:47;;;;;;;15.77;4.93;;;22.70;48.10;;;;;;5016977;28;20053;-53
2022/08/21 09:26:17;;;;;;;13.48;5.72;;;22.80;48.10;;;;;;5013468;28;20057;-52
2022/08/21 09:28:47;;;;;;;13.55;4.07;;;22.80;47.20;;;;;;5021464;28;20362;-51
2022/08/21 09:31:22;;;;;;;9.45;3.10;;;22.90;47.10;;;;;;5017167;28;20064;-49
2022/08/21 09:33:50;;;;;;;13.18;3.55;;;22.90;46.80;;;;;;5023670;28;20370;-52
2022/08/21 09:36:27;;;;;;;8.65;2.80;;;23.00;46.50;;;;;;5019408;28;20048;-48
2022/08/21 09:38:56;;;;;;;9.02;2.58;;;23.10;45.70;;;;;;5020964;28;20050;-51
2022/08/21 09:41:28;;;;;;;7.85;2.35;;;23.10;45.80;;;;;;5017270;28;20053;-54
2022/08/21 09:43:55;;;;;;;14.00;3.33;;;23.20;45.50;;;;;;5019918;28;20544;-53
2022/08/21 09:46:26;;;;;;;9.52;2.75;;;23.30;43.90;;;;;;5020067;28;20056;-53
2022/08/21 09:48:56;;;;;;;11.10;3.15;;;23.30;44.60;;;;;;5022840;28;20057;-52
2022/08/21 09:51:26;;;;;;;11.20;2.92;;;23.40;44.70;;;;;;5010959;28;20053;-52
2022/08/21 09:53:58;;;;;;;10.20;3.03;;;23.40;44.70;;;;;;5006242;28;20053;-53
2022/08/21 09:59:19;;;;;;;9.65;2.75;;;23.50;43.90;;;;;;5009786;28;20064;-51
2022/08/21 10:01:50;;;;;;;5.65;2.35;;;23.60;43.70;;;;;;5005243;28;20512;-51
2022/08/21 10:04:22;;;;;;;10.73;3.47;;;23.70;43.60;;;;;;5011998;28;20425;-51
2022/08/21 10:06:50;;;;;;;7.80;2.50;;;23.70;42.90;;;;;;5010189;28;20064;-54
2022/08/21 10:09:20;;;;;;;7.30;2.55;;;23.80;43.10;;;;;;5011461;28;20049;-54
2022/08/21 10:11:57;;;;;;;8.93;2.47;;;23.90;43.50;;;;;;5006428;28;20061;-50
2022/08/21 10:14:41;;;;;;;11.05;2.42;;;24.00;43.40;;;;;;5011700;28;20061;-55
2022/08/21 10:17:22;;;;;;;13.40;3.13;;;24.00;43.30;;;;;;5013082;28;20054;-50
2022/08/21 10:19:59;;;;;;;8.55;2.75;;;24.10;42.80;;;;;;4999429;28;20642;-56
2022/08/21 10:22:35;;;;;;;8.32;2.40;;;24.20;43.00;;;;;;5007117;28;20060;-50
2022/08/21 10:25:12;;;;;;;6.25;2.13;;;24.30;42.90;;;;;;5001667;28;20057;-52
2022/08/21 10:27:52;;;;;;;8.50;2.30;;;24.30;43.20;;;;;;5011803;28;20056;-52
2022/08/21 10:30:25;;;;;;;7.82;2.17;;;24.40;42.70;;;;;;5011335;28;20056;-56
2022/08/21 10:33:18;;;;;;;4.70;1.90;;;24.40;42.80;;;;;;5017597;28;20057;-53
2022/08/21 10:35:52;;;;;;;9.88;2.75;;;24.50;42.80;;;;;;4994605;28;20058;-52
2022/08/21 10:38:46;;;;;;;10.52;2.72;;;24.50;42.00;;;;;;5018828;28;20053;-50
2022/08/21 10:41:25;;;;;;;11.90;2.92;;;24.50;41.20;;;;;;5014698;28;20505;-52
2022/08/21 10:44:01;;;;;;;9.25;2.75;;;24.50;41.70;;;;;;5017070;28;20060;-56
2022/08/21 10:46:42;;;;;;;6.45;2.78;;;24.60;41.40;;;;;;5019518;28;20501;-53
2022/08/21 10:49:21;;;;;;;5.85;1.75;;;24.60;40.90;;;;;;5019319;28;20064;-49
2022/08/21 10:52:01;;;;;;;7.95;2.10;;;24.70;41.70;;;;;;5013679;28;20060;-52
2022/08/21 10:54:37;;;;;;;8.02;2.72;;;24.70;40.60;;;;;;5016814;28;20076;-50
2022/08/21 10:57:11;;;;;;;7.47;2.38;;;24.70;40.40;;;;;;5022013;28;20524;-54
2022/08/21 10:59:44;;;;;;;4.70;1.90;;;24.80;41.20;;;;;;5013363;28;20045;-51
2022/08/21 11:02:17;;;;;;;4.22;1.73;;;24.80;41.20;;;;;;5016197;28;20064;-54
2022/08/21 11:04:54;;;;;;;7.55;1.80;;;24.90;41.10;;;;;;5018426;28;20057;-52
2022/08/21 11:07:29;;;;;;;7.85;2.42;;;24.90;39.00;;;;;;5021826;28;20053;-49
2022/08/21 11:10:01;;;;;;;8.32;1.95;;;25.00;40.10;;;;;;5012492;28;20050;-50
2022/08/21 11:12:35;;;;;;;4.82;1.92;;;25.00;39.70;;;;;;5017511;28;20049;-53
2022/08/21 11:15:12;;;;;;;5.75;1.90;;;25.00;40.10;;;;;;5016992;28;20061;-53
2022/08/21 11:17:45;;;;;;;5.22;1.92;;;25.10;40.20;;;;;;5017896;28;20064;-55
2022/08/21 11:20:21;;;;;;;9.00;2.03;;;25.20;40.50;;;;;;5015602;28;20401;-51
2022/08/21 11:22:56;;;;;;;3.47;1.58;;;25.20;40.10;;;;;;5019865;28;20405;-53
2022/08/21 11:25:28;;;;;;;10.82;2.30;;;25.30;40.60;;;;;;5021293;28;20498;-53
2022/08/21 11:28:00;;;;;;;9.40;2.55;;;25.30;40.40;;;;;;5017763;28;20068;-54
2022/08/21 11:30:35;;;;;;;9.48;1.73;;;25.40;39.20;;;;;;5010428;28;20050;-53
2022/08/21 11:33:13;;;;;;;5.47;1.90;;;25.40;39.20;;;;;;5020425;28;20058;-53
2022/08/21 11:35:48;;;;;;;7.35;1.55;;;25.50;40.00;;;;;;5017898;28;20056;-52
2022/08/21 11:38:27;;;;;;;10.55;2.30;;;25.50;39.80;;;;;;5018539;28;20076;-50
2022/08/21 11:41:22;;;;;;;6.13;1.60;;;25.50;38.40;;;;;;5020003;28;20049;-49
2022/08/21 11:43:56;;;;;;;10.27;2.13;;;25.60;38.70;;;;;;5018943;28;20064;-51
2022/08/21 11:46:34;;;;;;;8.97;2.83;;;25.70;38.90;;;;;;5024289;28;20053;-54
2022/08/21 11:49:25;;;;;;;7.03;1.83;;;25.70;38.30;;;;;;5025381;28;20832;-51
2022/08/21 11:52:00;;;;;;;5.63;1.60;;;25.80;38.20;;;;;;5014492;28;20049;-50
2022/08/21 11:54:31;;;;;;;6.65;1.70;;;25.80;38.90;;;;;;5013906;28;20434;-50
2022/08/21 11:57:03;;;;;;;3.50;1.65;;;25.90;39.50;;;;;;5022896;28;20489;-51
2022/08/21 11:59:37;;;;;;;6.22;1.90;;;25.90;39.00;;;;;;5018783;28;20050;-50
2022/08/21 12:02:13;;;;;;;7.63;2.38;;;25.90;38.50;;;;;;5012123;28;20057;-49
2022/08/21 12:04:46;;;;;;;5.78;2.10;;;25.90;37.40;;;;;;5020957;28;20053;-53
2022/08/21 12:07:17;;;;;;;4.75;1.85;;;26.00;36.90;;;;;;5020810;28;20728;-51
2022/08/21 12:09:54;;;;;;;5.63;1.60;;;26.00;37.00;;;;;;5012811;28;20050;-52
2022/08/21 12:12:26;;;;;;;6.55;1.90;;;26.10;37.20;;;;;;5016980;28;20049;-55
2022/08/21 12:15:14;;;;;;;6.75;2.13;;;26.20;37.20;;;;;;5016052;28;20061;-54
2022/08/21 12:17:53;;;;;;;4.10;1.92;;;26.20;38.00;;;;;;5025714;28;20057;-53
2022/08/21 12:20:43;;;;;;;5.22;1.70;;;26.30;37.80;;;;;;5019282;28;20252;-53
2022/08/21 12:23:25;;;;;;;6.57;1.70;;;26.30;37.60;;;;;;5023752;28;20061;-52
2022/08/21 12:26:05;;;;;;;4.35;1.52;;;26.30;37.70;;;;;;5017029;28;20064;-54
2022/08/21 12:28:32;;;;;;;5.00;1.67;;;26.40;36.60;;;;;;5018485;28;20045;-53
2022/08/21 12:30:59;;;;;;;3.45;1.42;;;26.40;37.00;;;;;;5014972;28;20491;-54
2022/08/21 12:33:30;;;;;;;4.13;1.40;;;26.40;36.70;;;;;;5021847;28;20419;-52
2022/08/21 12:36:05;;;;;;;5.35;1.95;;;26.40;37.00;;;;;;5020700;28;20053;-47
2022/08/21 12:38:44;;;;;;;3.42;1.40;;;26.40;37.30;;;;;;5024399;28;20056;-54
2022/08/21 12:41:18;;;;;;;9.10;1.88;;;26.50;37.30;;;;;;5009926;28;20052;-53
2022/08/21 12:43:51;;;;;;;6.20;1.77;;;26.50;36.60;;;;;;5017297;28;20065;-55
2022/08/21 12:46:22;;;;;;;11.07;2.05;;;26.40;35.60;;;;;;5024159;28;20052;-51
2022/08/21 12:48:56;;;;;;;4.72;1.80;;;26.40;35.30;;;;;;5020480;28;20065;-50
2022/08/21 12:51:24;;;;;;;;;;;26.50;35.70;;;;;;5016613;28;20064;-55
2022/08/21 12:53:54;;;;;;;6.50;2.10;;;26.50;36.40;;;;;;5016874;28;19924;-49
2022/08/21 12:56:24;;;;;;;6.82;1.67;;;26.60;35.50;;;;;;5020820;28;20049;-50
2022/08/21 12:58:55;;;;;;;4.78;1.80;;;26.60;34.80;;;;;;5018485;28;20046;-53
2022/08/21 13:01:27;;;;;;;6.25;1.70;;;26.70;35.50;;;;;;5017095;28;20053;-55